Terminal Aerodrome Forecast
Issued by NWS Mt. Holly, NJ

Home | Current Version | Previous Version | Text Only | Print | Product List | Glossary On
Versions: 1 2 3 4 5 6 7 8 9 10 11 12 13 14 15 16 17 18
000
FTUS41 KPHI 010500
TAFTTN
TAF
KTTN 010539Z 0106/0206 02004KT P6SM BKN020
     FM010900 05006KT 4SM BR VCSH OVC006
     FM011400 05007KT P6SM VCSH BKN015
     FM011800 06007KT P6SM SCT015 OVC040
     FM020000 05006KT P6SM BKN015
     FM020500 04006KT P6SM BKN009=

USA.gov is the U.S. government's official web portal to all federal, state and local government web resources and services.